Time;durP1;ratioP1;P1;durP2;ratioP2;P2;SDS_P1;SDS_P2;PMS_P1;PMS_P2;Temp;Humidity;BMP_temperature;BMP_pressure;BME280_temperature;BME280_humidity;BME280_pressure;Samples;Min_cycle;Max_cycle;Signal;HPM_P1;HPM_P2
2022/06/02 00:02:01;;;;;;;4.85;4.18;;;13.90;99.90;;;;;;4168882;28;20037;-67
2022/06/02 00:04:07;;;;;;;4.97;4.45;;;13.80;99.90;;;;;;4165445;28;20128;-67
2022/06/02 00:06:29;;;;;;;5.43;4.93;;;13.80;99.90;;;;;;4171012;28;20086;-67
2022/06/02 00:08:47;;;;;;;5.45;4.55;;;13.90;99.90;;;;;;4166911;28;20149;-67
2022/06/02 00:10:58;;;;;;;6.82;5.18;;;13.90;99.90;;;;;;4169169;28;20036;-67
2022/06/02 00:13:22;;;;;;;10.13;5.03;;;13.80;99.90;;;;;;4165314;28;20555;-67
2022/06/02 00:15:35;;;;;;;5.88;5.15;;;13.80;99.90;;;;;;4152307;28;20037;-67
2022/06/02 00:17:52;;;;;;;;;;;13.80;99.90;;;;;;4165622;28;20044;-67
2022/06/02 00:20:12;;;;;;;6.30;5.20;;;13.70;99.90;;;;;;4169904;28;19916;-67
2022/06/02 00:22:34;;;;;;;7.00;6.13;;;13.70;99.90;;;;;;4168457;28;20034;-67
2022/06/02 00:24:53;;;;;;;5.70;5.10;;;13.70;99.90;;;;;;4169060;28;20044;-67
2022/06/02 00:27:42;;;;;;;5.70;5.00;;;13.70;99.90;;;;;;4176587;28;20128;-68
2022/06/02 00:30:13;;;;;;;5.50;4.85;;;13.70;99.90;;;;;;4171234;28;20041;-67
2022/06/02 00:32:42;;;;;;;6.38;5.18;;;13.60;99.90;;;;;;4167980;28;20472;-67
2022/06/02 00:35:13;;;;;;;7.78;5.40;;;13.60;99.90;;;;;;4160368;28;20104;-67
2022/06/02 00:37:25;;;;;;;5.40;4.70;;;13.60;99.90;;;;;;4162997;28;20049;-67
2022/06/02 00:39:29;;;;;;;7.55;5.50;;;13.60;99.90;;;;;;4174678;28;20075;-67
2022/06/02 00:41:54;;;;;;;6.40;5.30;;;13.70;99.90;;;;;;4165466;28;20112;-67
2022/06/02 00:44:16;;;;;;;6.70;5.53;;;13.60;99.90;;;;;;4168183;28;20056;-68
2022/06/02 00:46:37;;;;;;;7.78;4.78;;;13.70;99.90;;;;;;4163260;28;20535;-67
2022/06/02 00:49:06;;;;;;;6.75;5.18;;;13.70;99.90;;;;;;4168210;28;20059;-67
2022/06/02 00:51:13;;;;;;;7.05;4.68;;;13.60;99.90;;;;;;4163989;28;20033;-67
2022/06/02 00:53:14;;;;;;;6.97;5.75;;;13.70;99.90;;;;;;4170089;28;20112;-67
2022/06/02 00:58:17;;;;;;;5.90;5.05;;;13.70;99.90;;;;;;4164482;28;20491;-69
2022/06/02 01:00:30;;;;;;;7.55;5.30;;;13.70;99.90;;;;;;4162169;28;20116;-67
2022/06/02 01:02:40;;;;;;;6.55;5.65;;;13.60;99.90;;;;;;4166853;28;20036;-67
2022/06/02 01:04:42;;;;;;;6.90;5.68;;;13.60;99.90;;;;;;4164606;28;20498;-67
2022/06/02 01:07:01;;;;;;;6.82;5.13;;;13.60;99.90;;;;;;4166141;28;20473;-67
2022/06/02 01:09:20;;;;;;;6.50;5.43;;;13.60;99.90;;;;;;4164159;28;20049;-67
2022/06/02 01:11:39;;;;;;;7.32;6.18;;;13.60;99.90;;;;;;4167041;28;20036;-67
2022/06/02 01:13:51;;;;;;;8.45;5.93;;;13.60;99.90;;;;;;4170252;28;20488;-67
2022/06/02 01:15:58;;;;;;;6.88;5.70;;;13.60;99.90;;;;;;4162746;28;20079;-67
2022/06/02 01:18:34;;;;;;;7.90;6.25;;;13.60;99.90;;;;;;4171779;28;20034;-67
2022/06/02 01:20:55;;;;;;;6.28;5.53;;;13.60;99.90;;;;;;4170409;28;20106;-67
2022/06/02 01:23:09;;;;;;;6.85;5.45;;;13.60;99.90;;;;;;4166062;28;20037;-69
2022/06/02 01:25:27;;;;;;;7.57;6.60;;;13.60;99.90;;;;;;4168689;28;20037;-67
2022/06/02 01:28:03;;;;;;;6.60;5.75;;;13.60;99.90;;;;;;4167861;28;20411;-67
2022/06/02 01:30:22;;;;;;;8.70;6.55;;;13.60;99.90;;;;;;4166433;28;20033;-67
2022/06/02 01:33:05;;;;;;;9.20;6.70;;;13.60;99.90;;;;;;4165539;28;20049;-67
2022/06/02 01:35:25;;;;;;;7.35;5.90;;;13.50;99.90;;;;;;4162766;28;20083;-67
2022/06/02 01:37:36;;;;;;;5.82;5.22;;;13.50;99.90;;;;;;4167649;28;20047;-68
2022/06/02 01:40:04;;;;;;;6.05;4.80;;;13.50;99.90;;;;;;4173238;28;20036;-67
2022/06/02 01:42:33;;;;;;;5.90;5.20;;;13.40;99.90;;;;;;4165302;28;21429;-67
2022/06/02 01:44:43;;;;;;;6.28;5.18;;;13.40;99.90;;;;;;4162373;28;20456;-67
2022/06/02 01:46:52;;;;;;;6.75;5.43;;;13.40;99.90;;;;;;4144173;28;20401;-67
2022/06/02 01:49:14;;;;;;;6.13;4.93;;;13.30;99.90;;;;;;4164478;28;20388;-67
2022/06/02 01:51:29;;;;;;;5.80;5.00;;;13.30;99.90;;;;;;4167004;28;20499;-67
2022/06/02 01:53:56;;;;;;;7.97;5.50;;;13.20;99.90;;;;;;4163854;28;20124;-67
2022/06/02 01:56:15;;;;;;;7.40;5.82;;;13.20;99.90;;;;;;4162294;28;20048;-67
2022/06/02 01:58:40;;;;;;;9.05;5.45;;;13.20;99.90;;;;;;4174761;28;20127;-67
2022/06/02 02:00:41;;;;;;;5.72;4.80;;;13.10;99.90;;;;;;4172261;28;20104;-67
2022/06/02 02:02:59;;;;;;;6.63;5.53;;;13.10;99.90;;;;;;4175645;28;20037;-67
2022/06/02 02:05:17;;;;;;;6.63;5.55;;;13.10;99.90;;;;;;4174789;28;20029;-67
2022/06/02 02:07:38;;;;;;;6.20;5.43;;;13.10;99.90;;;;;;4167559;28;20141;-66
2022/06/02 02:09:48;;;;;;;7.65;6.32;;;13.00;99.90;;;;;;4166486;28;20057;-67
2022/06/02 02:11:54;;;;;;;7.75;5.85;;;13.00;99.90;;;;;;4167798;28;20120;-67
2022/06/02 02:14:14;;;;;;;7.93;5.93;;;13.00;99.90;;;;;;4165083;28;20103;-68
2022/06/02 02:16:20;;;;;;;7.53;5.70;;;13.00;99.90;;;;;;4171461;28;20039;-67
2022/06/02 02:18:40;;;;;;;6.72;5.80;;;13.00;99.90;;;;;;4148792;28;20132;-66
2022/06/02 02:20:53;;;;;;;6.97;5.68;;;13.00;99.90;;;;;;4166192;28;20037;-67
2022/06/02 02:23:05;;;;;;;6.90;5.18;;;12.90;99.90;;;;;;4164269;28;20121;-67
2022/06/02 02:25:15;;;;;;;8.73;6.20;;;12.90;99.90;;;;;;4162385;28;20120;-67
2022/06/02 02:27:16;;;;;;;8.25;6.55;;;12.90;99.90;;;;;;4163046;28;20064;-67
2022/06/02 02:29:41;;;;;;;8.30;6.28;;;12.80;99.90;;;;;;4165323;28;20044;-67
2022/06/02 02:31:59;;;;;;;7.05;5.75;;;12.80;99.90;;;;;;4167337;28;20132;-67
2022/06/02 02:34:27;;;;;;;7.13;5.70;;;12.80;99.90;;;;;;4171005;28;20045;-67
2022/06/02 02:37:03;;;;;;;6.38;5.70;;;12.80;99.90;;;;;;4161144;28;20459;-67
2022/06/02 02:39:26;;;;;;;6.10;5.38;;;12.80;99.90;;;;;;4166074;28;20034;-67
2022/06/02 02:41:36;;;;;;;;;;;12.70;99.90;;;;;;4167410;28;20044;-67
2022/06/02 02:44:08;;;;;;;7.35;5.10;;;12.70;99.90;;;;;;4168725;28;20356;-67
2022/06/02 02:46:39;;;;;;;6.88;5.78;;;12.70;99.90;;;;;;4169776;28;20464;-67
2022/06/02 02:48:54;;;;;;;6.70;5.47;;;12.60;99.90;;;;;;4133354;28;20060;-67
2022/06/02 02:51:28;;;;;;;6.63;5.70;;;12.60;99.90;;;;;;4166131;28;20112;-67
2022/06/02 02:53:36;;;;;;;6.88;5.60;;;12.50;99.90;;;;;;4171329;28;20045;-67
2022/06/02 02:55:45;;;;;;;6.72;5.60;;;12.50;99.90;;;;;;4166413;28;20491;-67
2022/06/02 02:58:24;;;;;;;7.18;5.68;;;12.50;99.90;;;;;;4166810;28;20045;-67
2022/06/02 03:00:35;;;;;;;8.10;6.18;;;12.40;99.90;;;;;;4170195;28;20127;-67
2022/06/02 03:03:00;;;;;;;7.85;5.95;;;12.40;99.90;;;;;;4170977;28;20029;-67
2022/06/02 03:05:16;;;;;;;8.13;6.40;;;12.40;99.90;;;;;;4168287;28;20060;-67
2022/06/02 03:07:17;;;;;;;8.63;6.53;;;12.40;99.90;;;;;;4169267;28;20432;-66
2022/06/02 03:09:26;;;;;;;8.70;6.72;;;12.40;99.90;;;;;;4170501;28;20053;-67
2022/06/02 03:11:57;;;;;;;8.43;6.88;;;12.40;99.90;;;;;;4164807;28;20048;-67
2022/06/02 03:14:07;;;;;;;9.20;6.90;;;12.40;99.90;;;;;;4169600;28;20530;-66
2022/06/02 03:16:12;;;;;;;8.50;6.78;;;12.40;99.90;;;;;;4167628;28;20482;-67
2022/06/02 03:18:34;;;;;;;7.50;6.70;;;12.40;99.90;;;;;;4168148;28;20121;-67
2022/06/02 03:20:56;;;;;;;8.00;6.72;;;12.40;99.90;;;;;;4163422;28;20042;-67
2022/06/02 03:23:21;;;;;;;9.75;6.88;;;12.40;99.90;;;;;;4171548;28;20045;-67
2022/06/02 03:25:47;;;;;;;7.88;6.47;;;12.40;99.90;;;;;;4168567;28;20061;-67
2022/06/02 03:28:07;;;;;;;9.10;7.82;;;12.30;99.90;;;;;;4170359;28;20044;-66
2022/06/02 03:30:21;;;;;;;9.95;7.90;;;12.30;99.90;;;;;;4169772;28;20496;-67
2022/06/02 03:32:41;;;;;;;11.27;8.13;;;12.30;99.90;;;;;;4172748;28;20354;-67
2022/06/02 03:34:53;;;;;;;10.00;8.38;;;12.30;99.90;;;;;;4172693;28;20394;-67
2022/06/02 03:37:20;;;;;;;11.85;9.32;;;12.30;99.90;;;;;;4167322;28;20025;-67
2022/06/02 03:39:56;;;;;;;9.35;7.90;;;12.30;99.90;;;;;;4113348;28;20152;-66
2022/06/02 03:42:23;;;;;;;9.40;7.38;;;12.30;99.90;;;;;;4161164;28;20029;-67
2022/06/02 03:44:42;;;;;;;8.82;6.90;;;12.20;99.90;;;;;;4173140;28;20049;-66
2022/06/02 03:46:52;;;;;;;8.02;6.85;;;12.20;99.90;;;;;;4172667;28;20130;-66
2022/06/02 03:49:22;;;;;;;9.45;7.38;;;12.20;99.90;;;;;;4169104;28;20044;-66
2022/06/02 03:51:34;;;;;;;8.85;7.28;;;12.20;99.90;;;;;;4173199;28;20037;-66
2022/06/02 03:53:47;;;;;;;8.10;6.75;;;12.10;99.90;;;;;;4166423;28;20042;-66
2022/06/02 03:56:05;;;;;;;8.57;7.00;;;12.20;99.90;;;;;;4172518;28;20052;-67
2022/06/02 03:58:16;;;;;;;10.27;8.02;;;12.10;99.90;;;;;;4169643;28;20037;-67
2022/06/02 04:00:20;;;;;;;8.88;7.13;;;12.10;99.90;;;;;;4156162;28;20041;-67
2022/06/02 04:02:36;;;;;;;10.57;8.05;;;12.10;99.90;;;;;;4169738;28;20536;-67
2022/06/02 04:05:14;;;;;;;11.20;8.15;;;12.10;99.90;;;;;;4175187;28;20037;-67
2022/06/02 04:07:26;;;;;;;9.10;7.78;;;12.10;99.90;;;;;;4166987;28;20043;-67
2022/06/02 04:09:49;;;;;;;9.93;7.75;;;12.10;99.90;;;;;;4169655;28;20487;-67
2022/06/02 04:14:40;;;;;;;10.15;7.80;;;12.00;99.90;;;;;;4171058;28;20477;-67
2022/06/02 04:16:53;;;;;;;9.50;7.55;;;12.00;99.90;;;;;;4132291;28;20087;-66
2022/06/02 04:22:20;;;;;;;9.77;8.60;;;12.00;99.90;;;;;;4168277;28;20377;-67
2022/06/02 04:24:40;;;;;;;9.55;7.75;;;12.00;99.90;;;;;;4122459;28;20490;-66
2022/06/02 04:27:16;;;;;;;9.68;7.60;;;12.00;99.90;;;;;;4166237;28;20029;-67
2022/06/02 04:29:36;;;;;;;9.43;8.02;;;12.00;99.90;;;;;;4129799;28;20044;-66
2022/06/02 04:31:57;;;;;;;10.57;8.80;;;12.00;99.90;;;;;;4147718;28;20041;-67
2022/06/02 04:34:10;;;;;;;11.30;8.57;;;12.00;99.90;;;;;;4167739;28;20091;-66
2022/06/02 04:36:36;;;;;;;11.80;8.30;;;12.00;99.90;;;;;;4138460;28;1055698;-67
2022/06/02 04:39:10;;;;;;;11.52;8.93;;;12.10;99.90;;;;;;4173030;28;20053;-67
2022/06/02 04:41:35;;;;;;;11.93;8.70;;;12.10;99.90;;;;;;4161537;28;20064;-70
2022/06/02 04:43:50;;;;;;;12.18;8.27;;;12.10;99.90;;;;;;4164249;28;20753;-70
2022/06/02 04:46:14;;;;;;;10.05;8.50;;;12.10;99.90;;;;;;4168625;28;20041;-70
2022/06/02 04:48:27;;;;;;;11.55;9.18;;;12.10;99.90;;;;;;4165618;28;20040;-70
2022/06/02 04:50:40;;;;;;;13.45;9.07;;;12.10;99.90;;;;;;4165325;28;20041;-70
2022/06/02 04:53:18;;;;;;;13.80;9.15;;;12.10;99.90;;;;;;4168923;28;20051;-70
2022/06/02 04:55:29;;;;;;;11.13;8.77;;;12.20;99.90;;;;;;4165190;28;20441;-70
2022/06/02 04:57:49;;;;;;;10.20;8.80;;;12.20;99.90;;;;;;4165745;28;20071;-70
2022/06/02 05:00:05;;;;;;;13.50;9.65;;;12.20;99.90;;;;;;4166189;28;20064;-70
2022/06/02 05:02:23;;;;;;;12.50;9.90;;;12.20;99.90;;;;;;4166678;28;20486;-70
2022/06/02 05:04:36;;;;;;;12.93;10.18;;;12.20;99.90;;;;;;4168930;28;20040;-70
2022/06/02 05:06:45;;;;;;;;;;;12.30;99.90;;;;;;4164789;28;20128;-70
2022/06/02 05:09:19;;;;;;;12.95;9.95;;;12.30;99.90;;;;;;4168035;28;19982;-70
2022/06/02 05:11:47;;;;;;;11.45;9.70;;;12.30;99.90;;;;;;4164764;28;20041;-70
2022/06/02 05:13:56;;;;;;;14.38;10.52;;;12.40;99.90;;;;;;4166028;28;20045;-70
2022/06/02 05:16:16;;;;;;;14.88;10.75;;;12.50;99.90;;;;;;4167757;28;20033;-70
2022/06/02 05:19:07;;;;;;;15.88;11.15;;;12.50;99.90;;;;;;4166680;28;20397;-70
2022/06/02 05:21:43;;;;;;;12.38;10.63;;;12.60;99.90;;;;;;4125767;28;20029;-70
2022/06/02 05:24:09;;;;;;;15.02;11.77;;;12.60;99.90;;;;;;4170051;28;20507;-70
2022/06/02 05:26:35;;;;;;;15.82;12.82;;;12.70;99.90;;;;;;4156807;28;20045;-70
2022/06/02 05:28:53;;;;;;;13.98;11.85;;;12.70;99.90;;;;;;4168294;28;20042;-70
2022/06/02 05:31:15;;;;;;;15.13;12.40;;;12.80;99.90;;;;;;4166077;28;20124;-70
2022/06/02 05:33:27;;;;;;;13.90;11.70;;;12.80;99.90;;;;;;4165526;28;20083;-70
2022/06/02 05:35:39;;;;;;;12.95;10.80;;;12.90;99.90;;;;;;4167087;28;20134;-70
2022/06/02 05:38:10;;;;;;;15.38;12.65;;;12.90;99.90;;;;;;4169117;28;20132;-70
2022/06/02 05:40:20;;;;;;;16.38;12.75;;;13.00;99.90;;;;;;4135812;28;20103;-70
2022/06/02 05:42:28;;;;;;;16.08;12.68;;;13.00;99.90;;;;;;4167500;28;20044;-70
2022/06/02 05:44:53;;;;;;;15.57;13.00;;;13.10;99.90;;;;;;4166213;28;20037;-71
2022/06/02 05:47:23;;;;;;;17.23;13.50;;;13.10;99.90;;;;;;4149788;28;20061;-69
2022/06/02 05:49:29;;;;;;;16.58;13.38;;;13.20;99.90;;;;;;4122037;28;20091;-70
2022/06/02 05:51:58;;;;;;;16.85;14.05;;;13.40;99.90;;;;;;4166051;28;20033;-69
2022/06/02 05:54:35;;;;;;;16.90;13.55;;;13.60;99.90;;;;;;4165435;28;20111;-69
2022/06/02 05:57:00;;;;;;;14.63;12.35;;;14.10;99.90;;;;;;4166809;28;20090;-69
2022/06/02 05:59:19;;;;;;;14.35;12.00;;;14.50;99.90;;;;;;4167188;28;20697;-69
2022/06/02 06:01:47;;;;;;;14.98;12.13;;;15.10;99.90;;;;;;4168396;28;20052;-69
2022/06/02 06:04:20;;;;;;;14.32;12.40;;;15.60;99.90;;;;;;4170543;28;20516;-69
2022/06/02 06:06:51;;;;;;;13.52;11.25;;;16.20;99.90;;;;;;4164354;28;20030;-69
2022/06/02 06:09:02;;;;;;;12.68;10.55;;;16.70;99.90;;;;;;4165992;28;20410;-69
2022/06/02 06:11:05;;;;;;;13.13;10.45;;;17.20;99.90;;;;;;4164676;28;20835;-70
2022/06/02 06:13:15;;;;;;;12.98;10.65;;;17.70;99.90;;;;;;4162210;28;20052;-70
2022/06/02 06:15:28;;;;;;;10.32;9.23;;;18.10;99.90;;;;;;4164359;28;20029;-70
2022/06/02 06:17:49;;;;;;;11.90;10.07;;;18.50;99.90;;;;;;4166317;28;20038;-70
2022/06/02 06:20:12;;;;;;;9.55;8.48;;;18.90;99.90;;;;;;4166196;28;20125;-70
2022/06/02 06:22:15;;;;;;;13.52;9.30;;;19.40;99.90;;;;;;4166279;28;20503;-70
2022/06/02 06:24:35;;;;;;;10.40;8.25;;;19.70;99.90;;;;;;4147622;28;20145;-71
2022/06/02 06:27:07;;;;;;;10.20;7.90;;;19.90;99.90;;;;;;4165447;28;20147;-71
2022/06/02 06:29:43;;;;;;;10.73;7.57;;;20.20;99.90;;;;;;4164796;28;20044;-71
2022/06/02 06:32:05;;;;;;;8.95;7.68;;;20.40;99.90;;;;;;4164237;28;20037;-71
2022/06/02 06:34:39;;;;;;;9.52;7.22;;;20.40;99.90;;;;;;4165456;28;20451;-71
2022/06/02 06:37:18;;;;;;;8.10;7.00;;;20.50;99.90;;;;;;4144945;28;20057;-71
2022/06/02 06:39:42;;;;;;;7.97;6.88;;;20.50;99.90;;;;;;4164102;28;20029;-71
2022/06/02 06:41:52;;;;;;;8.55;6.68;;;20.50;99.90;;;;;;4135351;28;20061;-71
2022/06/02 06:44:17;;;;;;;7.63;6.60;;;20.50;99.90;;;;;;4169721;28;20142;-71
2022/06/02 06:46:25;;;;;;;8.52;6.82;;;20.50;99.90;;;;;;4162703;28;20091;-71
2022/06/02 06:48:36;;;;;;;8.25;6.65;;;20.50;99.90;;;;;;4146780;28;20038;-71
2022/06/02 06:51:07;;;;;;;8.90;7.18;;;20.50;99.90;;;;;;4159496;28;20045;-71
2022/06/02 06:53:19;;;;;;;7.68;6.85;;;20.60;99.90;;;;;;4165702;28;20048;-71
2022/06/02 06:55:40;;;;;;;9.52;6.53;;;20.60;99.90;;;;;;4167382;28;20566;-71
2022/06/02 06:57:52;;;;;;;8.35;6.32;;;20.60;99.90;;;;;;4168368;28;20075;-71
2022/06/02 07:00:07;;;;;;;9.02;6.90;;;20.70;99.90;;;;;;4165109;28;20041;-72
2022/06/02 07:02:39;;;;;;;8.25;6.30;;;20.60;99.90;;;;;;4168274;28;20068;-72
2022/06/02 07:05:01;;;;;;;6.45;5.45;;;20.50;99.50;;;;;;4165854;28;20052;-71
2022/06/02 07:07:32;;;;;;;6.60;5.70;;;20.40;99.90;;;;;;4165975;28;20075;-71
2022/06/02 07:09:59;;;;;;;6.68;5.80;;;20.40;99.90;;;;;;4166863;28;20284;-71
2022/06/02 07:14:50;;;;;;;7.65;6.50;;;20.40;99.90;;;;;;4167193;28;20045;-72
2022/06/02 07:16:56;;;;;;;7.88;7.03;;;20.40;98.90;;;;;;4163841;28;20033;-71
2022/06/02 07:19:05;;;;;;;8.18;6.10;;;20.50;99.90;;;;;;4166181;28;20033;-72
2022/06/02 07:21:26;;;;;;;6.82;5.82;;;20.50;99.90;;;;;;4163744;28;20051;-72
2022/06/02 07:23:48;;;;;;;7.32;6.63;;;20.50;99.90;;;;;;4164173;28;20045;-71
2022/06/02 07:25:53;;;;;;;8.65;6.75;;;20.40;99.50;;;;;;4164750;28;20082;-71
2022/06/02 07:28:19;;;;;;;7.93;6.38;;;20.50;98.40;;;;;;4166734;28;20044;-71
2022/06/02 07:30:57;;;;;;;8.80;6.50;;;20.30;98.90;;;;;;4163603;28;20495;-71
2022/06/02 07:33:23;;;;;;;7.97;6.18;;;20.30;99.90;;;;;;4165314;28;20048;-71
2022/06/02 07:35:58;;;;;;;5.75;5.15;;;20.20;99.90;;;;;;4166272;28;20140;-70
2022/06/02 07:38:04;;;;;;;5.75;5.10;;;20.10;99.90;;;;;;4165967;28;20060;-71
2022/06/02 07:40:12;;;;;;;5.28;4.55;;;20.10;99.90;;;;;;4165177;28;20061;-71
2022/06/02 07:42:57;;;;;;;5.63;3.45;;;20.00;99.90;;;;;;4164120;28;20102;-71
2022/06/02 07:45:19;;;;;;;4.15;3.58;;;19.90;99.40;;;;;;4162658;28;20125;-71
2022/06/02 07:47:53;;;;;;;4.18;3.53;;;19.80;99.20;;;;;;4165215;28;20065;-71
2022/06/02 07:50:08;;;;;;;5.93;3.65;;;19.70;98.30;;;;;;4162067;28;20041;-71
2022/06/02 07:52:31;;;;;;;4.53;3.78;;;19.60;97.90;;;;;;4154041;28;20045;-71
2022/06/02 07:54:44;;;;;;;6.40;3.83;;;19.60;99.10;;;;;;4168702;28;20513;-71
2022/06/02 07:57:01;;;;;;;;;;;19.50;99.10;;;;;;4168245;28;20033;-70
2022/06/02 07:59:47;;;;;;;4.50;3.03;;;19.30;98.00;;;;;;4164421;28;19924;-70
2022/06/02 08:02:06;;;;;;;3.65;2.97;;;19.30;98.40;;;;;;4095169;28;20043;-70
2022/06/02 08:04:20;;;;;;;3.58;2.35;;;19.30;98.30;;;;;;4095193;28;20065;-70
2022/06/02 08:06:44;;;;;;;2.47;2.28;;;19.40;98.70;;;;;;4113334;28;20025;-70
2022/06/02 08:09:16;;;;;;;4.65;3.35;;;19.30;97.50;;;;;;4168435;28;20116;-71
2022/06/02 08:11:38;;;;;;;4.57;3.17;;;19.20;97.40;;;;;;4167245;28;20129;-71
2022/06/02 08:14:02;;;;;;;4.07;3.43;;;19.10;98.00;;;;;;4167553;28;20041;-71
2022/06/02 08:16:13;;;;;;;5.38;4.20;;;19.00;98.20;;;;;;4166290;28;20056;-71
2022/06/02 08:18:38;;;;;;;3.85;3.42;;;19.00;97.70;;;;;;4170078;28;20078;-70
2022/06/02 08:21:15;;;;;;;3.67;3.25;;;18.90;98.00;;;;;;4169670;28;20468;-70
2022/06/02 08:23:24;;;;;;;3.85;3.10;;;18.90;98.30;;;;;;4168547;28;20063;-71
2022/06/02 08:25:36;;;;;;;3.72;3.08;;;18.80;97.60;;;;;;4169369;28;20436;-70
2022/06/02 08:27:43;;;;;;;4.47;3.10;;;18.80;98.20;;;;;;4166977;28;20045;-71
2022/06/02 08:30:08;;;;;;;4.18;3.00;;;18.80;98.80;;;;;;4167224;28;20060;-70
2022/06/02 08:32:30;;;;;;;4.40;3.47;;;18.80;98.80;;;;;;4150714;28;20057;-70
2022/06/02 08:34:47;;;;;;;4.05;3.15;;;18.80;99.90;;;;;;4167907;28;20057;-70
2022/06/02 08:37:13;;;;;;;3.03;2.60;;;18.80;99.90;;;;;;4168743;28;20086;-70
2022/06/02 08:39:51;;;;;;;4.78;3.38;;;18.90;99.10;;;;;;4171655;28;20380;-70
2022/06/02 08:42:07;;;;;;;3.75;2.67;;;18.90;98.00;;;;;;4168339;28;20128;-71
2022/06/02 08:45:04;;;;;;;3.90;2.80;;;18.90;99.90;;;;;;4169892;28;20037;-70
2022/06/02 08:47:39;;;;;;;4.35;2.55;;;18.90;99.90;;;;;;4167313;28;20065;-71
2022/06/02 08:50:17;;;;;;;3.42;3.13;;;18.90;98.90;;;;;;4172316;28;20903;-71
2022/06/02 08:52:37;;;;;;;3.55;2.95;;;18.90;99.20;;;;;;4138920;28;20061;-71
2022/06/02 08:54:59;;;;;;;3.10;2.63;;;18.90;99.90;;;;;;4171093;28;20470;-71
2022/06/02 08:57:13;;;;;;;3.28;2.50;;;18.90;99.90;;;;;;4167459;28;20488;-70
2022/06/02 08:59:38;;;;;;;3.95;3.15;;;18.90;99.90;;;;;;4168357;28;20168;-70
2022/06/02 09:02:04;;;;;;;2.90;2.60;;;19.00;99.90;;;;;;4163635;28;20040;-70
2022/06/02 09:04:38;;;;;;;3.10;2.72;;;19.00;99.90;;;;;;4168640;28;20115;-70
2022/06/02 09:07:14;;;;;;;2.80;2.55;;;19.00;99.90;;;;;;4169530;28;20052;-70
2022/06/02 09:09:58;;;;;;;3.22;2.92;;;19.00;99.40;;;;;;4151300;28;20155;-70
2022/06/02 09:12:13;;;;;;;3.42;2.50;;;19.00;99.70;;;;;;4166533;28;20086;-70
2022/06/02 09:14:13;;;;;;;2.88;2.58;;;19.00;99.90;;;;;;4169406;28;20107;-70
2022/06/02 09:16:20;;;;;;;2.58;2.38;;;19.10;99.90;;;;;;4167201;28;20512;-71
2022/06/02 09:19:01;;;;;;;2.70;2.22;;;19.10;97.40;;;;;;4169649;28;20412;-70
2022/06/02 09:21:13;;;;;;;2.45;2.25;;;19.00;97.30;;;;;;4166636;28;20116;-70
2022/06/02 09:23:16;;;;;;;3.00;2.50;;;19.00;95.80;;;;;;4169627;28;20044;-70
2022/06/02 09:25:51;;;;;;;4.75;2.30;;;18.80;96.90;;;;;;4170088;28;20060;-71
2022/06/02 09:28:19;;;;;;;2.65;2.30;;;18.90;99.90;;;;;;4169037;28;20040;-70
2022/06/02 09:30:28;;;;;;;3.33;2.42;;;18.90;99.90;;;;;;4168557;28;20045;-71
2022/06/02 09:32:40;;;;;;;2.65;2.05;;;18.90;98.60;;;;;;4168399;28;20086;-71
2022/06/02 09:35:23;;;;;;;3.42;2.90;;;18.90;99.80;;;;;;4167687;28;20104;-70
2022/06/02 09:37:29;;;;;;;3.42;2.63;;;19.00;98.60;;;;;;4168152;28;20108;-70
2022/06/02 09:39:55;;;;;;;3.10;2.80;;;19.00;96.50;;;;;;4165360;28;20595;-70
2022/06/02 09:42:25;;;;;;;4.35;2.70;;;19.00;96.50;;;;;;4166475;28;20079;-70
2022/06/02 09:44:34;;;;;;;2.80;2.10;;;19.10;99.70;;;;;;4167988;28;20037;-69
2022/06/02 09:47:20;;;;;;;2.47;1.92;;;19.20;98.10;;;;;;4166858;28;20052;-70
2022/06/02 09:49:48;;;;;;;3.75;2.88;;;19.20;96.40;;;;;;4166519;28;20460;-70
2022/06/02 09:51:54;;;;;;;3.45;2.78;;;19.30;98.20;;;;;;4166361;28;20471;-70
2022/06/02 09:54:12;;;;;;;3.50;2.50;;;19.40;97.60;;;;;;4166949;28;20051;-70
2022/06/02 09:56:27;;;;;;;3.13;2.47;;;19.40;98.70;;;;;;4147655;28;20044;-70
2022/06/02 09:58:50;;;;;;;3.30;2.40;;;19.50;97.60;;;;;;4168724;28;20030;-70
2022/06/02 10:01:03;;;;;;;2.70;2.40;;;19.60;96.20;;;;;;4165183;28;20041;-70
2022/06/02 10:03:34;;;;;;;5.68;3.22;;;19.60;94.70;;;;;;4166523;28;20056;-70
2022/06/02 10:05:56;;;;;;;3.20;2.60;;;19.60;95.10;;;;;;4166925;28;20038;-70
2022/06/02 10:08:38;;;;;;;5.65;4.30;;;19.60;95.90;;;;;;4168620;28;20033;-70
2022/06/02 10:10:47;;;;;;;4.95;3.45;;;19.60;95.80;;;;;;4137998;28;20565;-70
2022/06/02 10:13:06;;;;;;;4.05;3.28;;;19.60;95.10;;;;;;4149375;28;20037;-70
2022/06/02 10:15:54;;;;;;;4.13;3.08;;;19.60;94.60;;;;;;4150028;28;20065;-71
2022/06/02 10:17:58;;;;;;;3.75;2.67;;;19.60;94.50;;;;;;4121923;28;20043;-70
2022/06/02 10:20:18;;;;;;;4.32;3.30;;;19.60;94.20;;;;;;4123514;28;20046;-70
2022/06/02 10:22:53;;;;;;;4.68;3.30;;;19.70;94.00;;;;;;4130400;28;20520;-70
2022/06/02 10:25:31;;;;;;;4.30;3.47;;;19.70;94.10;;;;;;4167910;28;20044;-70
2022/06/02 10:27:40;;;;;;;3.80;3.03;;;19.70;94.50;;;;;;4165414;28;20551;-70
2022/06/02 10:30:07;;;;;;;3.72;3.20;;;19.80;93.20;;;;;;4168206;28;20037;-71
2022/06/02 10:32:39;;;;;;;4.25;3.17;;;19.80;92.60;;;;;;4165817;28;20053;-71
2022/06/02 10:34:57;;;;;;;3.30;2.97;;;19.90;92.90;;;;;;4166869;28;20532;-70
2022/06/02 10:37:11;;;;;;;3.88;3.45;;;20.00;93.20;;;;;;4165860;28;20341;-71
2022/06/02 10:39:35;;;;;;;4.68;3.08;;;20.00;93.30;;;;;;4168105;28;20043;-70
2022/06/02 10:41:57;;;;;;;7.07;3.78;;;20.10;92.40;;;;;;4166878;28;20057;-70
2022/06/02 10:44:19;;;;;;;6.10;3.30;;;20.00;90.90;;;;;;4168792;28;20083;-71
2022/06/02 10:47:17;;;;;;;4.78;3.60;;;20.10;91.70;;;;;;4168589;28;20033;-70
2022/06/02 10:49:38;;;;;;;4.45;3.00;;;20.00;90.60;;;;;;4085406;29;20047;-71
2022/06/02 10:52:10;;;;;;;5.60;3.10;;;20.10;91.10;;;;;;4127887;28;20520;-70
2022/06/02 10:54:22;;;;;;;4.25;3.58;;;20.10;91.30;;;;;;4166819;28;20053;-71
2022/06/02 10:56:29;;;;;;;4.07;3.20;;;20.20;94.90;;;;;;4165601;28;20052;-70
2022/06/02 10:59:09;;;;;;;4.50;3.38;;;20.30;93.50;;;;;;4149532;28;20037;-71
2022/06/02 11:01:40;;;;;;;5.15;3.33;;;20.40;91.50;;;;;;4164575;28;20037;-71
2022/06/02 11:03:56;;;;;;;3.85;2.70;;;20.50;91.80;;;;;;4166930;28;20051;-70
2022/06/02 11:06:35;;;;;;;5.35;3.40;;;20.50;90.50;;;;;;4163365;28;20481;-70
2022/06/02 11:09:03;;;;;;;4.05;2.92;;;20.60;90.10;;;;;;4164983;28;20048;-70
2022/06/02 11:11:47;;;;;;;5.22;2.97;;;20.60;89.20;;;;;;4164657;28;20048;-70
2022/06/02 11:14:30;;;;;;;5.25;2.65;;;20.60;85.70;;;;;;4168400;28;20049;-70
2022/06/02 11:16:42;;;;;;;3.28;2.42;;;20.70;87.00;;;;;;4114804;28;20177;-71
2022/06/02 11:19:04;;;;;;;3.55;2.60;;;20.80;90.00;;;;;;4168518;28;20042;-71
2022/06/02 11:21:10;;;;;;;3.80;2.60;;;20.90;90.30;;;;;;4165978;28;20045;-71
2022/06/02 11:23:45;;;;;;;3.42;1.92;;;21.00;88.80;;;;;;4161117;28;20064;-70
2022/06/02 11:25:51;;;;;;;4.35;2.63;;;21.00;86.20;;;;;;4166689;28;20040;-70
2022/06/02 11:28:08;;;;;;;3.10;2.63;;;21.00;86.60;;;;;;4165815;28;20034;-70
2022/06/02 11:30:22;;;;;;;2.65;2.38;;;20.90;83.30;;;;;;4165242;28;20476;-71
2022/06/02 11:32:29;;;;;;;3.88;2.45;;;20.90;87.50;;;;;;4173158;28;20795;-70
2022/06/02 11:34:59;;;;;;;3.28;2.50;;;20.90;84.10;;;;;;4163670;28;20492;-71
2022/06/02 11:37:21;;;;;;;4.38;3.08;;;20.90;86.20;;;;;;4173162;28;20033;-71
2022/06/02 11:39:56;;;;;;;8.60;4.22;;;21.00;92.50;;;;;;4164323;28;20037;-71
2022/06/02 11:42:36;;;;;;;5.80;4.07;;;21.10;90.70;;;;;;4169124;28;20032;-71
2022/06/02 11:45:20;;;;;;;6.18;4.45;;;21.20;91.00;;;;;;4169339;28;20041;-70
2022/06/02 11:47:30;;;;;;;6.82;4.82;;;21.20;88.40;;;;;;4168275;28;20067;-71
2022/06/02 11:49:59;;;;;;;7.75;5.47;;;21.20;91.90;;;;;;4164704;28;20029;-71
2022/06/02 11:52:23;;;;;;;11.65;6.47;;;21.00;84.00;;;;;;4167589;28;20086;-71
2022/06/02 11:54:29;;;;;;;10.68;6.55;;;20.80;85.40;;;;;;4169714;28;20112;-71
2022/06/02 11:56:39;;;;;;;8.13;5.75;;;20.70;85.10;;;;;;4169877;28;20052;-71
2022/06/02 11:59:12;;;;;;;7.60;5.22;;;20.70;84.50;;;;;;4169247;28;20366;-71
2022/06/02 12:01:37;;;;;;;10.95;6.20;;;20.60;85.00;;;;;;4166564;28;20450;-71
2022/06/02 12:04:17;;;;;;;8.68;6.00;;;20.40;83.80;;;;;;4173012;28;20037;-71
2022/06/02 12:06:46;;;;;;;12.23;6.35;;;20.40;85.40;;;;;;4171077;28;20034;-72
2022/06/02 12:08:59;;;;;;;10.18;5.65;;;20.30;85.50;;;;;;4146036;28;20071;-71
2022/06/02 12:11:12;;;;;;;8.30;5.70;;;20.20;85.00;;;;;;4166152;28;20030;-71
2022/06/02 12:13:12;;;;;;;6.47;4.78;;;20.20;85.30;;;;;;4169238;28;20502;-70
2022/06/02 12:15:42;;;;;;;8.25;6.18;;;20.30;90.50;;;;;;4170139;28;20624;-71
2022/06/02 12:17:59;;;;;;;10.43;6.50;;;20.10;85.40;;;;;;4169928;28;20476;-71
2022/06/02 12:20:13;;;;;;;7.28;5.15;;;20.10;86.00;;;;;;4152516;28;20536;-71
2022/06/02 12:22:25;;;;;;;8.00;5.88;;;20.20;86.70;;;;;;4168850;28;20104;-70
2022/06/02 12:24:50;;;;;;;7.10;5.27;;;20.20;84.40;;;;;;4169900;28;20033;-69